sensor_id;sensor_type;location;lat;lon;timestamp;pressure;altitude;pressure_sealevel;temperature;humidity
72395;BME280;60384;48.152;11.614;2023-04-09T00:00:22;96270.16;;;6.18;57.23
72395;BME280;60384;48.152;11.614;2023-04-09T00:03:24;96274.66;;;6.17;56.69
72395;BME280;60384;48.152;11.614;2023-04-09T00:06:25;96272.81;;;6.18;56.63
72395;BME280;60384;48.152;11.614;2023-04-09T00:09:27;96264.84;;;6.18;56.37
72395;BME280;60384;48.152;11.614;2023-04-09T00:12:29;96270.97;;;6.18;57.00
72395;BME280;60384;48.152;11.614;2023-04-09T00:15:32;96271.75;;;6.19;56.83
72395;BME280;60384;48.152;11.614;2023-04-09T00:18:33;96263.78;;;6.19;56.72
72395;BME280;60384;48.152;11.614;2023-04-09T00:21:35;96260.34;;;6.18;56.50
72395;BME280;60384;48.152;11.614;2023-04-09T00:24:37;96254.78;;;6.20;57.00
72395;BME280;60384;48.152;11.614;2023-04-09T00:27:38;96255.28;;;6.22;56.56
72395;BME280;60384;48.152;11.614;2023-04-09T00:30:41;96256.88;;;6.23;56.93
72395;BME280;60384;48.152;11.614;2023-04-09T00:33:43;96248.13;;;6.22;56.96
72395;BME280;60384;48.152;11.614;2023-04-09T00:36:44;96249.97;;;6.22;56.89
72395;BME280;60384;48.152;11.614;2023-04-09T00:39:46;96249.19;;;6.21;56.86
72395;BME280;60384;48.152;11.614;2023-04-09T00:42:48;96244.66;;;6.22;57.18
72395;BME280;60384;48.152;11.614;2023-04-09T00:45:51;96251.81;;;6.21;56.58
72395;BME280;60384;48.152;11.614;2023-04-09T00:48:53;96248.91;;;6.23;57.12
72395;BME280;60384;48.152;11.614;2023-04-09T00:51:54;96253.41;;;6.22;56.78
72395;BME280;60384;48.152;11.614;2023-04-09T00:54:57;96247.06;;;6.23;56.82
72395;BME280;60384;48.152;11.614;2023-04-09T00:57:59;96248.66;;;6.25;56.76
72395;BME280;60384;48.152;11.614;2023-04-09T01:01:02;96256.59;;;6.25;56.71
72395;BME280;60384;48.152;11.614;2023-04-09T01:04:03;96255.81;;;6.24;56.86
72395;BME280;60384;48.152;11.614;2023-04-09T01:07:08;96251.56;;;6.23;56.96
72395;BME280;60384;48.152;11.614;2023-04-09T01:10:14;96253.41;;;6.22;56.51
72395;BME280;60384;48.152;11.614;2023-04-09T01:13:22;96255.28;;;6.22;56.90
72395;BME280;60384;48.152;11.614;2023-04-09T01:16:31;96248.69;;;6.19;57.05
72395;BME280;60384;48.152;11.614;2023-04-09T01:19:40;96251.59;;;6.18;57.05
72395;BME280;60384;48.152;11.614;2023-04-09T01:22:47;96247.09;;;6.18;56.87
72395;BME280;60384;48.152;11.614;2023-04-09T01:25:53;96246.28;;;6.18;56.65
72395;BME280;60384;48.152;11.614;2023-04-09T01:29:01;96243.63;;;6.18;56.91
72395;BME280;60384;48.152;11.614;2023-04-09T01:32:03;96244.44;;;6.18;56.71
72395;BME280;60384;48.152;11.614;2023-04-09T01:35:06;96242.03;;;6.17;56.58
72395;BME280;60384;48.152;11.614;2023-04-09T01:38:09;96251.84;;;6.16;56.67
72395;BME280;60384;48.152;11.614;2023-04-09T01:41:14;96244.47;;;6.13;57.07
72395;BME280;60384;48.152;11.614;2023-04-09T01:44:18;96251.09;;;6.11;57.06
72395;BME280;60384;48.152;11.614;2023-04-09T01:47:20;96255.59;;;6.10;57.58
72395;BME280;60384;48.152;11.614;2023-04-09T01:50:22;96248.75;;;6.09;56.97
72395;BME280;60384;48.152;11.614;2023-04-09T01:53:24;96246.34;;;6.08;56.94
72395;BME280;60384;48.152;11.614;2023-04-09T01:56:27;96250.06;;;6.07;56.88
72395;BME280;60384;48.152;11.614;2023-04-09T01:59:30;96245.81;;;6.06;57.14
72395;BME280;60384;48.152;11.614;2023-04-09T02:02:40;96253.78;;;6.06;57.10
72395;BME280;60384;48.152;11.614;2023-04-09T02:05:43;96253.78;;;6.06;57.18
72395;BME280;60384;48.152;11.614;2023-04-09T02:08:46;96250.06;;;6.07;57.11
72395;BME280;60384;48.152;11.614;2023-04-09T02:11:49;96253.50;;;6.07;57.32
72395;BME280;60384;48.152;11.614;2023-04-09T02:14:52;96255.09;;;6.08;57.08
72395;BME280;60384;48.152;11.614;2023-04-09T02:17:54;96253.25;;;6.09;56.90
72395;BME280;60384;48.152;11.614;2023-04-09T02:20:56;96247.16;;;6.08;57.16
72395;BME280;60384;48.152;11.614;2023-04-09T02:23:58;96248.19;;;6.07;56.93
72395;BME280;60384;48.152;11.614;2023-04-09T02:26:59;96252.44;;;6.08;56.99
72395;BME280;60384;48.152;11.614;2023-04-09T02:30:03;96245.78;;;6.11;57.16
72395;BME280;60384;48.152;11.614;2023-04-09T02:33:05;96243.13;;;6.11;57.18
72395;BME280;60384;48.152;11.614;2023-04-09T02:36:09;96245.78;;;6.11;56.74
72395;BME280;60384;48.152;11.614;2023-04-09T02:39:11;96242.34;;;6.10;57.21
72395;BME280;60384;48.152;11.614;2023-04-09T02:42:13;96243.94;;;6.11;57.23
72395;BME280;60384;48.152;11.614;2023-04-09T02:45:16;96247.38;;;6.12;57.01
72395;BME280;60384;48.152;11.614;2023-04-09T02:48:18;96248.44;;;6.11;57.24
72395;BME280;60384;48.152;11.614;2023-04-09T02:51:19;96244.19;;;6.10;57.18
72395;BME280;60384;48.152;11.614;2023-04-09T02:54:21;96236.53;;;6.08;57.02
72395;BME280;60384;48.152;11.614;2023-04-09T02:57:23;96237.34;;;6.09;57.12
72395;BME280;60384;48.152;11.614;2023-04-09T03:00:26;96233.88;;;6.08;57.03
72395;BME280;60384;48.152;11.614;2023-04-09T03:03:28;96232.81;;;6.09;57.18
72395;BME280;60384;48.152;11.614;2023-04-09T03:06:30;96229.38;;;6.09;57.04
72395;BME280;60384;48.152;11.614;2023-04-09T03:09:32;96230.94;;;6.10;57.24
72395;BME280;60384;48.152;11.614;2023-04-09T03:12:34;96222.47;;;6.08;56.91
72395;BME280;60384;48.152;11.614;2023-04-09T03:15:37;96220.88;;;6.07;57.21
72395;BME280;60384;48.152;11.614;2023-04-09T03:18:40;96216.38;;;6.07;57.21
72395;BME280;60384;48.152;11.614;2023-04-09T03:21:41;96232.03;;;6.09;57.04
72395;BME280;60384;48.152;11.614;2023-04-09T03:24:44;96235.75;;;6.08;57.21
72395;BME280;60384;48.152;11.614;2023-04-09T03:27:45;96228.06;;;6.06;57.60
72395;BME280;60384;48.152;11.614;2023-04-09T03:30:55;96235.22;;;6.06;57.40
72395;BME280;60384;48.152;11.614;2023-04-09T03:33:57;96237.88;;;6.06;57.39
72395;BME280;60384;48.152;11.614;2023-04-09T03:37:01;96243.16;;;6.06;57.44
72395;BME280;60384;48.152;11.614;2023-04-09T03:40:05;96242.63;;;6.04;56.88
72395;BME280;60384;48.152;11.614;2023-04-09T03:43:08;96237.09;;;6.00;57.42
72395;BME280;60384;48.152;11.614;2023-04-09T03:46:14;96239.78;;;5.95;57.49
72395;BME280;60384;48.152;11.614;2023-04-09T03:49:18;96242.47;;;5.90;57.41
72395;BME280;60384;48.152;11.614;2023-04-09T03:52:20;96240.59;;;5.86;57.40
72395;BME280;60384;48.152;11.614;2023-04-09T03:55:29;96249.88;;;5.83;57.33
72395;BME280;60384;48.152;11.614;2023-04-09T03:58:34;96245.38;;;5.78;57.31
72395;BME280;60384;48.152;11.614;2023-04-09T04:01:37;96251.50;;;5.74;57.35
72395;BME280;60384;48.152;11.614;2023-04-09T04:04:39;96249.69;;;5.69;57.60
72395;BME280;60384;48.152;11.614;2023-04-09T04:07:44;96252.59;;;5.68;57.42
72395;BME280;60384;48.152;11.614;2023-04-09T04:10:51;96251.25;;;5.65;57.39
72395;BME280;60384;48.152;11.614;2023-04-09T04:13:53;96251.81;;;5.62;57.53
72395;BME280;60384;48.152;11.614;2023-04-09T04:16:58;96249.44;;;5.61;57.49
72395;BME280;60384;48.152;11.614;2023-04-09T04:20:03;96264.53;;;5.60;57.66
72395;BME280;60384;48.152;11.614;2023-04-09T04:23:10;96253.41;;;5.58;57.56
72395;BME280;60384;48.152;11.614;2023-04-09T04:26:20;96264.56;;;5.55;57.68
72395;BME280;60384;48.152;11.614;2023-04-09T04:29:22;96261.91;;;5.50;57.42
72395;BME280;60384;48.152;11.614;2023-04-09T04:32:30;96269.63;;;5.47;57.77
72395;BME280;60384;48.152;11.614;2023-04-09T04:35:35;96269.09;;;5.45;57.36
72395;BME280;60384;48.152;11.614;2023-04-09T04:38:40;96267.22;;;5.45;57.45
72395;BME280;60384;48.152;11.614;2023-04-09T04:41:48;96266.44;;;5.45;57.46
72395;BME280;60384;48.152;11.614;2023-04-09T04:44:55;96269.88;;;5.45;57.67
72395;BME280;60384;48.152;11.614;2023-04-09T04:48:12;96262.72;;;5.46;57.58
72395;BME280;60384;48.152;11.614;2023-04-09T04:51:13;96262.97;;;5.49;57.52
72395;BME280;60384;48.152;11.614;2023-04-09T04:54:21;96246.81;;;5.51;57.68
72395;BME280;60384;48.152;11.614;2023-04-09T04:57:27;96243.63;;;5.54;57.43
72395;BME280;60384;48.152;11.614;2023-04-09T05:00:28;96263.50;;;5.56;57.45
72395;BME280;60384;48.152;11.614;2023-04-09T05:03:36;96273.53;;;5.59;57.56
72395;BME280;60384;48.152;11.614;2023-04-09T05:06:58;96271.41;;;5.61;57.18
72395;BME280;60384;48.152;11.614;2023-04-09T05:10:00;96279.63;;;5.60;57.35
72395;BME280;60384;48.152;11.614;2023-04-09T05:13:09;96278.34;;;5.57;57.41
72395;BME280;60384;48.152;11.614;2023-04-09T05:16:14;96282.31;;;5.55;57.32
72395;BME280;60384;48.152;11.614;2023-04-09T05:19:19;96288.41;;;5.50;57.43
72395;BME280;60384;48.152;11.614;2023-04-09T05:22:23;96288.16;;;5.47;57.41
72395;BME280;60384;48.152;11.614;2023-04-09T05:25:25;96288.69;;;5.44;57.22
72395;BME280;60384;48.152;11.614;2023-04-09T05:28:27;96295.59;;;5.39;57.70
72395;BME280;60384;48.152;11.614;2023-04-09T05:31:39;96301.16;;;5.38;57.77
72395;BME280;60384;48.152;11.614;2023-04-09T05:34:49;96289.75;;;5.37;57.56
72395;BME280;60384;48.152;11.614;2023-04-09T05:37:51;96300.09;;;5.39;57.22
72395;BME280;60384;48.152;11.614;2023-04-09T05:40:52;96309.34;;;5.41;57.24
72395;BME280;60384;48.152;11.614;2023-04-09T05:43:55;96296.09;;;5.41;57.41
72395;BME280;60384;48.152;11.614;2023-04-09T05:46:57;96299.81;;;5.46;57.49
72395;BME280;60384;48.152;11.614;2023-04-09T05:50:07;96293.97;;;5.49;57.39
72395;BME280;60384;48.152;11.614;2023-04-09T05:53:09;96286.81;;;5.54;57.46
72395;BME280;60384;48.152;11.614;2023-04-09T05:56:14;96287.59;;;5.60;57.11
72395;BME280;60384;48.152;11.614;2023-04-09T05:59:26;96283.84;;;5.66;57.18
72395;BME280;60384;48.152;11.614;2023-04-09T06:02:28;96280.41;;;5.70;56.94
72395;BME280;60384;48.152;11.614;2023-04-09T06:05:31;96275.59;;;5.77;56.92
72395;BME280;60384;48.152;11.614;2023-04-09T06:08:32;96284.59;;;5.81;56.99
72395;BME280;60384;48.152;11.614;2023-04-09T06:11:34;96288.84;;;5.88;57.12
72395;BME280;60384;48.152;11.614;2023-04-09T06:14:35;96298.38;;;5.94;56.71
72395;BME280;60384;48.152;11.614;2023-04-09T06:17:37;96301.00;;;5.99;56.85
72395;BME280;60384;48.152;11.614;2023-04-09T06:20:40;96305.22;;;6.05;56.82
72395;BME280;60384;48.152;11.614;2023-04-09T06:23:42;96300.97;;;6.14;56.57
72395;BME280;60384;48.152;11.614;2023-04-09T06:26:44;96309.38;;;6.21;56.22
72395;BME280;60384;48.152;11.614;2023-04-09T06:29:45;96305.66;;;6.27;56.67
72395;BME280;60384;48.152;11.614;2023-04-09T06:32:47;96308.81;;;6.34;56.62
72395;BME280;60384;48.152;11.614;2023-04-09T06:35:50;96307.72;;;6.40;57.02
72395;BME280;60384;48.152;11.614;2023-04-09T06:38:52;96312.44;;;6.48;56.53
72395;BME280;60384;48.152;11.614;2023-04-09T06:41:53;96314.81;;;6.55;56.54
72395;BME280;60384;48.152;11.614;2023-04-09T06:45:05;96309.16;;;6.61;56.30
72395;BME280;60384;48.152;11.614;2023-04-09T06:48:07;96309.13;;;6.67;56.53
72395;BME280;60384;48.152;11.614;2023-04-09T06:51:10;96309.13;;;6.72;56.81
72395;BME280;60384;48.152;11.614;2023-04-09T06:54:12;96313.03;;;6.79;56.09
72395;BME280;60384;48.152;11.614;2023-04-09T06:57:14;96309.56;;;6.84;56.92
72395;BME280;60384;48.152;11.614;2023-04-09T07:00:15;96313.75;;;6.90;56.71
72395;BME280;60384;48.152;11.614;2023-04-09T07:03:17;96309.19;;;6.95;57.02
72395;BME280;60384;48.152;11.614;2023-04-09T07:06:20;96319.50;;;7.02;55.99
72395;BME280;60384;48.152;11.614;2023-04-09T07:09:22;96320.00;;;7.09;55.78
72395;BME280;60384;48.152;11.614;2023-04-09T07:12:26;96318.88;;;7.15;56.05
72395;BME280;60384;48.152;11.614;2023-04-09T07:15:28;96313.53;;;7.20;56.67
72395;BME280;60384;48.152;11.614;2023-04-09T07:18:29;96325.44;;;7.28;56.47
72395;BME280;60384;48.152;11.614;2023-04-09T07:21:32;96324.00;;;7.35;56.45
72395;BME280;60384;48.152;11.614;2023-04-09T07:24:34;96321.31;;;7.40;55.93
72395;BME280;60384;48.152;11.614;2023-04-09T07:27:36;96317.84;;;7.45;55.97
72395;BME280;60384;48.152;11.614;2023-04-09T07:30:38;96316.72;;;7.51;56.70
72395;BME280;60384;48.152;11.614;2023-04-09T07:33:40;96318.00;;;7.54;55.83
72395;BME280;60384;48.152;11.614;2023-04-09T07:36:43;96315.88;;;7.56;56.77
72395;BME280;60384;48.152;11.614;2023-04-09T07:39:44;96321.13;;;7.61;55.67
72395;BME280;60384;48.152;11.614;2023-04-09T07:42:46;96322.66;;;7.67;55.56
72395;BME280;60384;48.152;11.614;2023-04-09T07:45:48;96314.84;;;7.75;56.05
72395;BME280;60384;48.152;11.614;2023-04-09T07:48:50;96312.13;;;7.85;56.40
72395;BME280;60384;48.152;11.614;2023-04-09T07:51:53;96312.28;;;7.94;56.08
72395;BME280;60384;48.152;11.614;2023-04-09T07:54:55;96318.25;;;8.05;55.38
72395;BME280;60384;48.152;11.614;2023-04-09T07:57:56;96317.84;;;8.16;56.02
72395;BME280;60384;48.152;11.614;2023-04-09T08:00:58;96315.06;;;8.26;55.78
72395;BME280;60384;48.152;11.614;2023-04-09T08:04:00;96313.41;;;8.36;55.75
72395;BME280;60384;48.152;11.614;2023-04-09T08:07:03;96317.66;;;8.37;56.01
72395;BME280;60384;48.152;11.614;2023-04-09T08:10:05;96321.38;;;8.36;55.71
72395;BME280;60384;48.152;11.614;2023-04-09T08:13:06;96320.19;;;8.47;55.39
72395;BME280;60384;48.152;11.614;2023-04-09T08:16:08;96326.94;;;8.58;55.40
72395;BME280;60384;48.152;11.614;2023-04-09T08:19:10;96323.19;;;8.78;55.35
72395;BME280;60384;48.152;11.614;2023-04-09T08:22:13;96329.25;;;8.83;55.06
72395;BME280;60384;48.152;11.614;2023-04-09T08:25:14;96327.09;;;8.85;55.83
72395;BME280;60384;48.152;11.614;2023-04-09T08:28:16;96328.41;;;8.88;55.50
72395;BME280;60384;48.152;11.614;2023-04-09T08:31:18;96326.13;;;8.95;55.40
72395;BME280;60384;48.152;11.614;2023-04-09T08:34:19;96323.91;;;9.02;55.69
72395;BME280;60384;48.152;11.614;2023-04-09T08:37:22;96329.25;;;9.02;55.82
72395;BME280;60384;48.152;11.614;2023-04-09T08:40:24;96329.25;;;9.02;55.55
72395;BME280;60384;48.152;11.614;2023-04-09T08:43:26;96327.88;;;9.04;55.37
72395;BME280;60384;48.152;11.614;2023-04-09T08:46:28;96323.25;;;9.10;56.05
72395;BME280;60384;48.152;11.614;2023-04-09T08:49:30;96340.16;;;9.19;55.19
72395;BME280;60384;48.152;11.614;2023-04-09T08:52:33;96342.88;;;9.33;55.62
72395;BME280;60384;48.152;11.614;2023-04-09T08:55:35;96341.56;;;9.49;55.08
72395;BME280;60384;48.152;11.614;2023-04-09T08:58:38;96348.63;;;9.72;54.81
72395;BME280;60384;48.152;11.614;2023-04-09T09:01:41;96337.19;;;9.99;54.84
72395;BME280;60384;48.152;11.614;2023-04-09T09:04:43;96341.75;;;10.12;54.57
72395;BME280;60384;48.152;11.614;2023-04-09T09:07:52;96346.59;;;10.10;54.75
72395;BME280;60384;48.152;11.614;2023-04-09T09:10:54;96352.16;;;10.27;54.78
72395;BME280;60384;48.152;11.614;2023-04-09T09:13:56;96347.50;;;10.33;54.06
72395;BME280;60384;48.152;11.614;2023-04-09T09:17:02;96344.31;;;10.31;55.00
72395;BME280;60384;48.152;11.614;2023-04-09T09:20:14;96343.84;;;10.29;54.55
72395;BME280;60384;48.152;11.614;2023-04-09T09:23:21;96341.66;;;10.45;54.57
72395;BME280;60384;48.152;11.614;2023-04-09T09:26:36;96338.47;;;10.43;54.04
72395;BME280;60384;48.152;11.614;2023-04-09T09:29:40;96353.53;;;10.52;54.81
72395;BME280;60384;48.152;11.614;2023-04-09T09:32:41;96338.28;;;10.89;53.99
72395;BME280;60384;48.152;11.614;2023-04-09T09:35:46;96335.06;;;11.14;53.80
72395;BME280;60384;48.152;11.614;2023-04-09T09:38:54;96336.44;;;11.34;53.27
72395;BME280;60384;48.152;11.614;2023-04-09T09:42:05;96336.34;;;11.39;53.31
72395;BME280;60384;48.152;11.614;2023-04-09T09:45:14;96334.88;;;11.55;53.17
72395;BME280;60384;48.152;11.614;2023-04-09T09:48:18;96330.72;;;11.71;53.29
72395;BME280;60384;48.152;11.614;2023-04-09T09:51:21;96336.63;;;11.82;53.03
72395;BME280;60384;48.152;11.614;2023-04-09T09:54:27;96343.19;;;11.76;53.39
72395;BME280;60384;48.152;11.614;2023-04-09T09:57:33;96341.03;;;11.86;53.83
72395;BME280;60384;48.152;11.614;2023-04-09T10:00:39;96341.44;;;12.02;52.90
72395;BME280;60384;48.152;11.614;2023-04-09T10:03:41;96345.22;;;12.01;53.18
72395;BME280;60384;48.152;11.614;2023-04-09T10:06:44;96338.50;;;12.12;53.22
72395;BME280;60384;48.152;11.614;2023-04-09T10:09:48;96332.88;;;12.31;53.06
72395;BME280;60384;48.152;11.614;2023-04-09T10:12:50;96331.63;;;12.37;53.49
72395;BME280;60384;48.152;11.614;2023-04-09T10:15:52;96335.00;;;12.51;53.46
72395;BME280;60384;48.152;11.614;2023-04-09T10:18:54;96345.25;;;12.58;53.26
72395;BME280;60384;48.152;11.614;2023-04-09T10:21:57;96339.72;;;12.54;53.32
72395;BME280;60384;48.152;11.614;2023-04-09T10:25:00;96337.41;;;12.70;53.45
72395;BME280;60384;48.152;11.614;2023-04-09T10:28:05;96333.78;;;12.92;52.79
72395;BME280;60384;48.152;11.614;2023-04-09T10:31:14;96330.78;;;12.93;52.92
72395;BME280;60384;48.152;11.614;2023-04-09T10:34:16;96325.59;;;12.97;53.13
72395;BME280;60384;48.152;11.614;2023-04-09T10:37:20;96332.06;;;12.87;53.82
72395;BME280;60384;48.152;11.614;2023-04-09T10:40:23;96330.59;;;12.72;53.50
72395;BME280;60384;48.152;11.614;2023-04-09T10:43:24;96334.69;;;12.53;53.99
72395;BME280;60384;48.152;11.614;2023-04-09T10:46:27;96341.16;;;12.52;54.05
72395;BME280;60384;48.152;11.614;2023-04-09T10:49:34;96338.75;;;12.41;54.19
72395;BME280;60384;48.152;11.614;2023-04-09T10:52:37;96334.00;;;12.38;54.58
72395;BME280;60384;48.152;11.614;2023-04-09T10:55:42;96337.31;;;12.44;54.68
72395;BME280;60384;48.152;11.614;2023-04-09T10:58:48;96339.72;;;12.46;54.43
72395;BME280;60384;48.152;11.614;2023-04-09T11:01:51;96329.66;;;12.68;53.73
72395;BME280;60384;48.152;11.614;2023-04-09T11:04:55;96336.03;;;13.15;52.99
72395;BME280;60384;48.152;11.614;2023-04-09T11:08:03;96332.53;;;13.49;52.49
72395;BME280;60384;48.152;11.614;2023-04-09T11:11:06;96331.38;;;13.68;52.17
72395;BME280;60384;48.152;11.614;2023-04-09T11:14:08;96326.34;;;13.57;52.73
72395;BME280;60384;48.152;11.614;2023-04-09T11:17:10;96326.34;;;13.66;52.38
72395;BME280;60384;48.152;11.614;2023-04-09T11:20:12;96329.34;;;13.64;52.55
72395;BME280;60384;48.152;11.614;2023-04-09T11:23:14;96323.06;;;13.43;53.23
72395;BME280;60384;48.152;11.614;2023-04-09T11:26:17;96323.53;;;13.45;53.39
72395;BME280;60384;48.152;11.614;2023-04-09T11:29:23;96321.81;;;13.23;53.72
72395;BME280;60384;48.152;11.614;2023-04-09T11:32:27;96324.94;;;13.00;54.18
72395;BME280;60384;48.152;11.614;2023-04-09T11:35:29;96322.41;;;12.77;54.60
72395;BME280;60384;48.152;11.614;2023-04-09T11:38:31;96324.28;;;12.60;54.51
72395;BME280;60384;48.152;11.614;2023-04-09T11:41:34;96317.03;;;12.52;55.26
72395;BME280;60384;48.152;11.614;2023-04-09T11:44:36;96317.78;;;12.43;55.06
72395;BME280;60384;48.152;11.614;2023-04-09T11:47:38;96322.94;;;12.31;55.27
72395;BME280;60384;48.152;11.614;2023-04-09T11:50:41;96328.75;;;12.25;55.25
72395;BME280;60384;48.152;11.614;2023-04-09T11:53:43;96326.22;;;12.20;55.35
72395;BME280;60384;48.152;11.614;2023-04-09T11:56:46;96332.16;;;12.08;55.34
72395;BME280;60384;48.152;11.614;2023-04-09T11:59:54;96335.13;;;11.98;55.82
72395;BME280;60384;48.152;11.614;2023-04-09T12:03:00;96344.72;;;11.99;54.85
72395;BME280;60384;48.152;11.614;2023-04-09T12:06:03;96342.03;;;12.30;54.56
72395;BME280;60384;48.152;11.614;2023-04-09T12:09:07;96334.00;;;12.38;54.89
72395;BME280;60384;48.152;11.614;2023-04-09T12:12:18;96334.66;;;12.44;54.10
72395;BME280;60384;48.152;11.614;2023-04-09T12:15:20;96335.13;;;12.46;54.29
72395;BME280;60384;48.152;11.614;2023-04-09T12:18:21;96339.84;;;12.40;55.07
72395;BME280;60384;48.152;11.614;2023-04-09T12:21:23;96341.09;;;12.34;54.96
72395;BME280;60384;48.152;11.614;2023-04-09T12:24:26;96337.94;;;12.32;54.61
72395;BME280;60384;48.152;11.614;2023-04-09T12:27:29;96335.53;;;12.31;54.30
72395;BME280;60384;48.152;11.614;2023-04-09T12:30:31;96341.91;;;12.43;54.51
72395;BME280;60384;48.152;11.614;2023-04-09T12:33:33;96335.38;;;13.01;53.63
72395;BME280;60384;48.152;11.614;2023-04-09T12:36:38;96337.53;;;13.68;52.37
72395;BME280;60384;48.152;11.614;2023-04-09T12:39:40;96329.44;;;14.40;51.35
72395;BME280;60384;48.152;11.614;2023-04-09T12:42:44;96337.56;;;14.53;51.46
72395;BME280;60384;48.152;11.614;2023-04-09T12:45:45;96339.44;;;14.81;51.61
72395;BME280;60384;48.152;11.614;2023-04-09T12:48:47;96337.66;;;14.65;51.90
72395;BME280;60384;48.152;11.614;2023-04-09T12:51:48;96326.75;;;14.40;52.41
72395;BME280;60384;48.152;11.614;2023-04-09T12:54:50;96331.72;;;14.13;53.63
72395;BME280;60384;48.152;11.614;2023-04-09T12:57:53;96325.16;;;13.84;53.74
72395;BME280;60384;48.152;11.614;2023-04-09T13:00:55;96326.81;;;13.68;54.11
72395;BME280;60384;48.152;11.614;2023-04-09T13:03:57;96323.19;;;14.11;53.25
72395;BME280;60384;48.152;11.614;2023-04-09T13:06:58;96320.19;;;14.12;53.03
72395;BME280;60384;48.152;11.614;2023-04-09T13:10:00;96326.59;;;13.90;53.69
72395;BME280;60384;48.152;11.614;2023-04-09T13:13:03;96325.38;;;13.62;54.14
72395;BME280;60384;48.152;11.614;2023-04-09T13:16:05;96324.81;;;13.31;54.01
72395;BME280;60384;48.152;11.614;2023-04-09T13:19:08;96316.31;;;13.20;54.25
72395;BME280;60384;48.152;11.614;2023-04-09T13:22:10;96326.53;;;13.09;54.54
72395;BME280;60384;48.152;11.614;2023-04-09T13:25:11;96325.59;;;12.97;55.16
72395;BME280;60384;48.152;11.614;2023-04-09T13:28:14;96320.38;;;12.83;54.76
72395;BME280;60384;48.152;11.614;2023-04-09T13:31:16;96324.59;;;12.67;55.10
72395;BME280;60384;48.152;11.614;2023-04-09T13:34:18;96322.69;;;12.59;54.98
72395;BME280;60384;48.152;11.614;2023-04-09T13:37:19;96304.41;;;12.52;55.48
72395;BME280;60384;48.152;11.614;2023-04-09T13:40:21;96310.22;;;12.54;55.32
72395;BME280;60384;48.152;11.614;2023-04-09T13:43:24;96308.56;;;12.75;54.86
72395;BME280;60384;48.152;11.614;2023-04-09T13:46:27;96303.31;;;13.48;53.18
72395;BME280;60384;48.152;11.614;2023-04-09T13:49:29;96291.28;;;14.09;52.12
72395;BME280;60384;48.152;11.614;2023-04-09T13:52:30;96282.81;;;14.99;50.96
72395;BME280;60384;48.152;11.614;2023-04-09T13:55:32;96289.19;;;15.81;49.84
72395;BME280;60384;48.152;11.614;2023-04-09T13:58:35;96284.94;;;16.40;48.97
72395;BME280;60384;48.152;11.614;2023-04-09T14:01:37;96297.63;;;16.88;48.82
72395;BME280;60384;48.152;11.614;2023-04-09T14:04:39;96298.69;;;16.23;50.73
72395;BME280;60384;48.152;11.614;2023-04-09T14:07:40;96285.50;;;16.82;49.59
72395;BME280;60384;48.152;11.614;2023-04-09T14:10:42;96291.41;;;17.28;49.15
72395;BME280;60384;48.152;11.614;2023-04-09T14:13:45;96286.59;;;17.77;48.69
72395;BME280;60384;48.152;11.614;2023-04-09T14:16:47;96292.78;;;17.77;49.07
72395;BME280;60384;48.152;11.614;2023-04-09T14:19:49;96288.59;;;18.11;48.65
72395;BME280;60384;48.152;11.614;2023-04-09T14:22:51;96278.78;;;18.03;49.10
72395;BME280;60384;48.152;11.614;2023-04-09T14:25:52;96276.03;;;18.35;48.61
72395;BME280;60384;48.152;11.614;2023-04-09T14:28:55;96289.91;;;18.17;49.57
72395;BME280;60384;48.152;11.614;2023-04-09T14:31:57;96287.16;;;17.98;49.60
72395;BME280;60384;48.152;11.614;2023-04-09T14:34:59;96289.81;;;17.55;50.87
72395;BME280;60384;48.152;11.614;2023-04-09T14:38:01;96285.38;;;16.91;51.88
72395;BME280;60384;48.152;11.614;2023-04-09T14:41:03;96289.13;;;16.38;52.49
72395;BME280;60384;48.152;11.614;2023-04-09T14:44:07;96279.56;;;16.04;53.07
72395;BME280;60384;48.152;11.614;2023-04-09T14:47:10;96291.41;;;15.66;52.87
72395;BME280;60384;48.152;11.614;2023-04-09T14:50:11;96283.22;;;15.75;52.88
72395;BME280;60384;48.152;11.614;2023-04-09T14:53:13;96284.75;;;16.09;52.48
72395;BME280;60384;48.152;11.614;2023-04-09T14:56:15;96277.53;;;16.25;52.32
72395;BME280;60384;48.152;11.614;2023-04-09T14:59:18;96280.47;;;16.44;52.39
72395;BME280;60384;48.152;11.614;2023-04-09T15:02:19;96276.78;;;16.61;51.91
72395;BME280;60384;48.152;11.614;2023-04-09T15:05:21;96275.28;;;16.76;51.68
72395;BME280;60384;48.152;11.614;2023-04-09T15:08:23;96273.34;;;16.88;52.09
72395;BME280;60384;48.152;11.614;2023-04-09T15:11:24;96281.16;;;17.06;51.87
72395;BME280;60384;48.152;11.614;2023-04-09T15:14:29;96274.84;;;17.14;51.70
72395;BME280;60384;48.152;11.614;2023-04-09T15:17:31;96272.03;;;17.10;51.96
72395;BME280;60384;48.152;11.614;2023-04-09T15:20:34;96270.81;;;17.08;51.76
72395;BME280;60384;48.152;11.614;2023-04-09T15:23:36;96269.47;;;17.02;52.14
72395;BME280;60384;48.152;11.614;2023-04-09T15:26:38;96271.00;;;16.75;52.61
72395;BME280;60384;48.152;11.614;2023-04-09T15:29:41;96267.88;;;16.48;52.68
72395;BME280;60384;48.152;11.614;2023-04-09T15:32:43;96268.56;;;16.21;52.98
72395;BME280;60384;48.152;11.614;2023-04-09T15:35:45;96281.00;;;15.89;53.75
72395;BME280;60384;48.152;11.614;2023-04-09T15:38:46;96274.22;;;15.59;53.87
72395;BME280;60384;48.152;11.614;2023-04-09T15:41:48;96277.50;;;15.44;54.14
72395;BME280;60384;48.152;11.614;2023-04-09T15:44:51;96277.56;;;15.23;54.27
72395;BME280;60384;48.152;11.614;2023-04-09T15:47:53;96281.78;;;14.91;54.03
72395;BME280;60384;48.152;11.614;2023-04-09T15:50:54;96272.00;;;14.66;54.18
72395;BME280;60384;48.152;11.614;2023-04-09T15:53:56;96269.94;;;14.42;54.55
72395;BME280;60384;48.152;11.614;2023-04-09T15:56:58;96276.69;;;14.19;55.12
72395;BME280;60384;48.152;11.614;2023-04-09T16:00:01;96272.19;;;14.02;54.93
72395;BME280;60384;48.152;11.614;2023-04-09T16:03:04;96275.09;;;13.88;55.15